createdAt,value
2022-08-25T00:00:23.221Z,21.56
2022-08-25T00:02:56.159Z,21.59
2022-08-25T00:05:33.576Z,21.58
2022-08-25T00:08:08.680Z,21.58
2022-08-25T00:10:41.866Z,21.56
2022-08-25T00:13:12.732Z,21.58
2022-08-25T00:15:42.817Z,21.52
2022-08-25T00:18:19.589Z,21.54
2022-08-25T00:20:50.746Z,21.49
2022-08-25T00:23:23.568Z,21.49
2022-08-25T00:25:55.373Z,21.48
2022-08-25T00:28:25.425Z,21.38
2022-08-25T00:30:55.609Z,21.40
2022-08-25T00:33:26.367Z,21.41
2022-08-25T00:35:57.287Z,21.32
2022-08-25T00:38:30.553Z,21.34
2022-08-25T00:41:11.437Z,21.35
2022-08-25T00:43:51.929Z,21.31
2022-08-25T00:46:24.318Z,21.31
2022-08-25T00:49:00.748Z,21.34
2022-08-25T00:51:38.125Z,21.31
2022-08-25T00:54:13.519Z,21.35
2022-08-25T00:56:44.715Z,21.35
2022-08-25T00:59:16.516Z,21.32
2022-08-25T01:01:46.683Z,21.34
2022-08-25T01:04:16.798Z,21.29
2022-08-25T01:06:48.083Z,21.28
2022-08-25T01:09:22.391Z,21.29
2022-08-25T01:11:53.008Z,21.30
2022-08-25T01:14:24.624Z,21.27
2022-08-25T01:16:58.279Z,21.28
2022-08-25T01:19:29.854Z,21.31
2022-08-25T01:22:03.199Z,21.27
2022-08-25T01:24:41.536Z,21.27
2022-08-25T01:27:12.630Z,21.24
2022-08-25T01:29:43.094Z,21.25
2022-08-25T01:32:16.061Z,21.24
2022-08-25T01:34:47.959Z,21.24
2022-08-25T01:37:21.946Z,21.24
2022-08-25T01:39:52.178Z,21.24
2022-08-25T01:42:32.037Z,21.21
2022-08-25T01:45:02.085Z,21.17
2022-08-25T01:47:32.468Z,21.17
2022-08-25T01:50:02.545Z,21.15
2022-08-25T01:52:40.155Z,21.13
2022-08-25T01:55:11.029Z,21.11
2022-08-25T01:57:41.152Z,21.06
2022-08-25T02:00:15.151Z,21.04
2022-08-25T02:02:45.838Z,20.96
2022-08-25T02:05:20.383Z,20.92
2022-08-25T02:07:56.233Z,20.96
2022-08-25T02:10:26.293Z,20.92
2022-08-25T02:12:56.353Z,20.92
2022-08-25T02:15:26.602Z,20.94
2022-08-25T02:17:57.332Z,20.93
2022-08-25T02:20:28.069Z,20.94
2022-08-25T02:23:00.724Z,20.91
2022-08-25T02:25:31.117Z,20.89
2022-08-25T02:28:01.713Z,20.88
2022-08-25T02:30:31.891Z,20.88
2022-08-25T02:33:04.066Z,20.86
2022-08-25T02:35:34.239Z,20.82
2022-08-25T02:38:07.943Z,20.84
2022-08-25T02:40:38.124Z,20.84
2022-08-25T02:43:08.629Z,20.82
2022-08-25T02:45:38.974Z,20.84
2022-08-25T02:48:09.175Z,20.82
2022-08-25T02:50:40.790Z,20.79
2022-08-25T02:53:13.508Z,20.80
2022-08-25T02:55:43.650Z,20.79
2022-08-25T02:58:13.852Z,20.77
2022-08-25T03:00:44.560Z,20.77
2022-08-25T03:03:15.745Z,20.77
2022-08-25T03:05:45.905Z,20.74
2022-08-25T03:08:18.986Z,20.73
2022-08-25T03:10:49.102Z,20.68
2022-08-25T03:13:22.102Z,20.67
2022-08-25T03:15:52.401Z,20.68
2022-08-25T03:18:23.216Z,20.68
2022-08-25T03:20:54.732Z,20.70
2022-08-25T03:23:27.415Z,20.68
2022-08-25T03:26:10.279Z,20.65
2022-08-25T03:28:40.375Z,20.69
2022-08-25T03:31:11.547Z,20.69
2022-08-25T03:33:41.823Z,20.69
2022-08-25T03:36:14.747Z,20.69
2022-08-25T03:38:47.558Z,20.68
2022-08-25T03:41:20.146Z,20.68
2022-08-25T03:43:50.481Z,20.65
2022-08-25T03:46:22.321Z,20.68
2022-08-25T03:48:52.811Z,20.71
2022-08-25T03:51:25.271Z,20.75
2022-08-25T03:53:59.176Z,20.76
2022-08-25T03:56:29.964Z,20.80
2022-08-25T03:59:00.304Z,20.80
2022-08-25T04:01:30.791Z,20.80
2022-08-25T04:04:00.953Z,20.83
2022-08-25T04:06:31.070Z,20.84
2022-08-25T04:09:04.034Z,20.85
2022-08-25T04:11:34.093Z,20.90
2022-08-25T04:14:07.498Z,20.90
2022-08-25T04:16:38.784Z,20.94
2022-08-25T04:19:10.686Z,21.01
2022-08-25T04:21:41.795Z,21.04
2022-08-25T04:24:15.999Z,21.06
2022-08-25T04:26:48.531Z,21.13
2022-08-25T04:29:23.785Z,21.18
2022-08-25T04:31:55.306Z,21.24
2022-08-25T04:34:29.447Z,21.27
2022-08-25T04:37:01.965Z,21.33
2022-08-25T04:39:37.488Z,21.36
2022-08-25T04:42:08.405Z,21.39
2022-08-25T04:44:38.489Z,21.36
2022-08-25T04:47:08.819Z,21.41
2022-08-25T04:49:38.904Z,21.45
2022-08-25T04:52:14.562Z,21.48
2022-08-25T04:54:47.806Z,21.54
2022-08-25T04:57:17.909Z,21.57
2022-08-25T04:59:47.935Z,21.65
2022-08-25T05:02:18.042Z,21.71
2022-08-25T05:04:48.172Z,21.87
2022-08-25T05:07:18.220Z,22.00
2022-08-25T05:09:50.859Z,22.14
2022-08-25T05:12:21.045Z,22.23
2022-08-25T05:14:51.292Z,22.42
2022-08-25T05:17:21.345Z,22.79
2022-08-25T05:19:52.647Z,23.06
2022-08-25T05:22:22.746Z,23.27
2022-08-25T05:24:55.681Z,23.39
2022-08-25T05:27:25.780Z,23.39
2022-08-25T05:29:56.047Z,23.49
2022-08-25T05:32:26.121Z,23.52
2022-08-25T05:34:56.508Z,23.51
2022-08-25T05:37:26.889Z,23.67
2022-08-25T05:39:59.579Z,23.91
2022-08-25T05:42:30.388Z,24.26
2022-08-25T05:45:00.492Z,24.47
2022-08-25T05:47:30.701Z,24.68
2022-08-25T05:50:01.445Z,25.08
2022-08-25T05:52:31.687Z,25.48
2022-08-25T05:55:04.442Z,25.56
2022-08-25T05:57:36.270Z,25.92
2022-08-25T06:00:07.888Z,26.26
2022-08-25T06:02:41.481Z,26.84
2022-08-25T06:05:11.976Z,27.35
2022-08-25T06:07:45.544Z,27.82
2022-08-25T06:10:19.459Z,28.17
2022-08-25T06:12:50.611Z,27.96
2022-08-25T06:15:23.611Z,27.96
2022-08-25T06:17:58.981Z,28.01
2022-08-25T06:20:33.414Z,28.23
2022-08-25T06:23:03.540Z,28.43
2022-08-25T06:25:36.328Z,28.47
2022-08-25T06:28:07.119Z,28.91
2022-08-25T06:30:37.351Z,28.96
2022-08-25T06:33:07.513Z,29.37
2022-08-25T06:35:38.294Z,29.24
2022-08-25T06:38:08.389Z,29.70
2022-08-25T06:40:41.471Z,29.87
2022-08-25T06:43:11.598Z,29.31
2022-08-25T06:45:41.933Z,29.56
2022-08-25T06:48:12.071Z,30.00
2022-08-25T06:50:42.626Z,30.18
2022-08-25T06:53:12.790Z,30.45
2022-08-25T06:55:45.419Z,30.84
2022-08-25T06:58:15.641Z,31.16
2022-08-25T07:00:45.858Z,31.35
2022-08-25T07:03:17.349Z,31.15
2022-08-25T07:05:54.326Z,31.57
2022-08-25T07:08:24.532Z,32.13
2022-08-25T07:10:57.402Z,32.46
2022-08-25T07:13:30.140Z,32.56
2022-08-25T07:16:00.276Z,32.82
2022-08-25T07:18:31.182Z,33.11
2022-08-25T07:21:01.441Z,33.31
2022-08-25T07:23:32.359Z,33.49
2022-08-25T07:26:36.307Z,33.65
2022-08-25T07:29:05.266Z,33.57
2022-08-25T07:31:38.488Z,34.00
2022-08-25T07:34:21.145Z,34.17
2022-08-25T07:36:51.322Z,33.91
2022-08-25T07:39:22.018Z,33.81
2022-08-25T07:41:55.517Z,34.16
2022-08-25T07:44:28.172Z,34.36
2022-08-25T07:46:59.186Z,34.40
2022-08-25T07:49:35.779Z,34.46
2022-08-25T07:52:09.797Z,34.79
2022-08-25T07:54:40.926Z,34.99
2022-08-25T07:57:14.002Z,34.61
2022-08-25T07:59:44.823Z,34.61
2022-08-25T08:02:18.172Z,35.03
2022-08-25T08:04:50.236Z,35.35
2022-08-25T08:07:22.810Z,35.18
2022-08-25T08:10:18.964Z,35.30
2022-08-25T08:12:46.214Z,35.29
2022-08-25T08:15:16.516Z,35.52
2022-08-25T08:17:46.737Z,35.77
2022-08-25T08:20:23.382Z,35.79
2022-08-25T08:22:53.856Z,35.78
2022-08-25T08:25:26.628Z,35.12
2022-08-25T08:28:00.824Z,35.35
2022-08-25T08:30:31.397Z,35.65
2022-08-25T08:33:11.293Z,35.65
2022-08-25T08:35:43.173Z,35.41
2022-08-25T08:38:18.424Z,35.38
2022-08-25T08:41:15.964Z,35.41
2022-08-25T08:43:51.876Z,35.48
2022-08-25T08:46:26.129Z,35.78
2022-08-25T08:49:05.006Z,35.37
2022-08-25T08:51:41.066Z,35.10
2022-08-25T08:54:18.675Z,35.34
2022-08-25T08:56:53.510Z,35.44
2022-08-25T08:59:30.915Z,35.63
2022-08-25T09:02:03.183Z,35.73
2022-08-25T09:04:38.416Z,35.99
2022-08-25T09:07:16.346Z,36.20
2022-08-25T09:09:48.253Z,36.34
2022-08-25T09:12:33.634Z,36.32
2022-08-25T09:15:17.644Z,36.47
2022-08-25T09:18:08.694Z,36.54
2022-08-25T09:20:57.840Z,36.56
2022-08-25T09:23:42.280Z,36.58
2022-08-25T09:26:27.814Z,36.18
2022-08-25T09:29:06.366Z,36.15
2022-08-25T09:31:51.625Z,36.18
2022-08-25T09:34:25.027Z,35.67
2022-08-25T09:37:05.969Z,35.07
2022-08-25T09:39:39.194Z,34.96
2022-08-25T09:42:09.708Z,35.27
2022-08-25T09:44:44.612Z,35.37
2022-08-25T09:53:59.326Z,35.36
2022-08-25T09:56:31.971Z,35.43
2022-08-25T09:59:34.102Z,35.40
2022-08-25T10:02:08.393Z,35.41
2022-08-25T10:04:41.324Z,35.58
2022-08-25T10:07:24.186Z,35.75
2022-08-25T10:09:59.982Z,35.79
2022-08-25T10:12:36.911Z,35.14
2022-08-25T10:15:29.198Z,35.29
2022-08-25T10:18:26.177Z,35.48
2022-08-25T10:21:09.575Z,35.49
2022-08-25T10:23:44.997Z,35.58
2022-08-25T10:26:34.899Z,35.61
2022-08-25T10:29:19.063Z,35.81
2022-08-25T10:38:42.909Z,35.68
2022-08-25T10:41:33.055Z,35.76
2022-08-25T10:44:28.557Z,35.55
2022-08-25T10:47:10.119Z,35.91
2022-08-25T10:49:49.938Z,35.73
2022-08-25T10:52:26.938Z,35.65
2022-08-25T10:55:10.306Z,35.43
2022-08-25T10:57:50.782Z,34.70
2022-08-25T11:00:31.698Z,35.50
2022-08-25T11:03:16.323Z,35.54
2022-08-25T11:05:54.016Z,35.74
2022-08-25T11:08:35.625Z,35.78
2022-08-25T11:11:12.551Z,35.98
2022-08-25T11:13:50.402Z,35.97
2022-08-25T11:16:32.466Z,35.91
2022-08-25T11:19:08.654Z,35.40
2022-08-25T11:21:47.593Z,35.44
2022-08-25T11:24:37.913Z,35.54
2022-08-25T11:27:13.746Z,35.65
2022-08-25T11:30:06.094Z,35.52
2022-08-25T11:32:37.996Z,35.34
2022-08-25T11:35:12.284Z,35.28
2022-08-25T11:37:56.673Z,34.66
2022-08-25T11:40:41.500Z,35.14
2022-08-25T11:43:29.070Z,35.52
2022-08-25T11:46:22.687Z,35.71
2022-08-25T11:49:10.888Z,35.71
2022-08-25T11:51:44.706Z,35.66
2022-08-25T11:54:22.505Z,35.65
2022-08-25T11:56:59.779Z,35.72
2022-08-25T12:00:05.573Z,35.75
2022-08-25T12:02:44.056Z,35.62
2022-08-25T12:05:50.042Z,35.44
2022-08-25T12:08:57.538Z,35.64
2022-08-25T12:11:46.856Z,35.39
2022-08-25T12:14:41.213Z,35.29
2022-08-25T12:17:24.603Z,35.53
2022-08-25T12:20:01.474Z,35.13
2022-08-25T12:22:57.034Z,35.45
2022-08-25T12:25:43.468Z,35.32
2022-08-25T12:28:29.561Z,35.45
2022-08-25T12:31:14.745Z,35.73
2022-08-25T12:33:55.642Z,35.27
2022-08-25T12:36:34.592Z,35.39
2022-08-25T12:39:19.862Z,35.62
2022-08-25T12:41:59.244Z,35.33
2022-08-25T12:44:41.161Z,35.31
2022-08-25T12:47:31.976Z,35.42
2022-08-25T12:50:32.665Z,35.51
2022-08-25T12:53:14.414Z,35.26
2022-08-25T12:55:54.700Z,35.37
2022-08-25T12:58:38.626Z,35.24
2022-08-25T13:01:35.498Z,35.13
2022-08-25T13:04:34.943Z,35.06
2022-08-25T13:07:26.498Z,34.78
2022-08-25T13:10:20.859Z,34.84
2022-08-25T13:12:57.762Z,34.75
2022-08-25T13:15:45.233Z,34.93
2022-08-25T13:18:23.164Z,35.10
2022-08-25T13:23:30.223Z,35.36
2022-08-25T13:26:03.142Z,35.26
2022-08-25T13:28:35.322Z,35.44
2022-08-25T13:31:09.939Z,35.35
2022-08-25T13:33:40.821Z,35.38
2022-08-25T13:36:32.598Z,35.46
2022-08-25T13:39:15.315Z,35.12
2022-08-25T13:41:55.579Z,35.05
2022-08-25T13:44:28.801Z,35.01
2022-08-25T13:47:09.983Z,34.99
2022-08-25T13:49:41.834Z,34.65
2022-08-25T13:52:30.168Z,34.42
2022-08-25T13:55:04.646Z,34.61
2022-08-25T13:57:37.671Z,34.80
2022-08-25T14:00:12.663Z,34.60
2022-08-25T14:02:45.484Z,34.31
2022-08-25T14:05:36.010Z,34.38
2022-08-25T14:08:25.280Z,34.45
2022-08-25T14:11:14.698Z,34.43
2022-08-25T14:13:49.358Z,34.53
2022-08-25T14:16:25.457Z,34.43
2022-08-25T14:18:58.832Z,34.32
2022-08-25T14:21:32.961Z,34.20
2022-08-25T14:24:06.830Z,34.11
2022-08-25T14:26:54.472Z,33.99
2022-08-25T14:29:27.827Z,34.11
2022-08-25T14:32:00.035Z,33.61
2022-08-25T14:34:36.811Z,33.53
2022-08-25T14:37:15.553Z,33.75
2022-08-25T14:39:46.202Z,34.04
2022-08-25T14:42:17.193Z,34.16
2022-08-25T14:44:50.865Z,33.97
2022-08-25T14:47:22.231Z,33.96
2022-08-25T14:49:54.402Z,33.90
2022-08-25T14:52:29.949Z,33.68
2022-08-25T14:55:00.290Z,33.69
2022-08-25T14:57:38.489Z,33.78
2022-08-25T15:00:13.850Z,33.95
2022-08-25T15:02:49.968Z,33.65
2022-08-25T15:05:28.467Z,33.58
2022-08-25T15:08:12.431Z,33.58
2022-08-25T15:10:43.550Z,33.67
2022-08-25T15:13:14.308Z,33.64
2022-08-25T15:15:52.762Z,33.55
2022-08-25T15:18:24.255Z,33.52
2022-08-25T15:20:57.695Z,33.55
2022-08-25T15:23:27.954Z,33.51
2022-08-25T15:25:59.384Z,33.38
2022-08-25T15:28:33.731Z,33.29
2022-08-25T15:31:06.735Z,33.39
2022-08-25T15:33:38.639Z,33.39
2022-08-25T15:36:11.393Z,33.53
2022-08-25T15:38:46.872Z,33.32
2022-08-25T15:41:17.536Z,33.45
2022-08-25T15:43:47.710Z,33.51
2022-08-25T15:46:27.992Z,33.31
2022-08-25T15:48:59.682Z,33.46
2022-08-25T15:51:30.567Z,33.26
2022-08-25T15:54:00.931Z,33.35
2022-08-25T15:56:34.091Z,33.25
2022-08-25T15:59:08.686Z,33.03
2022-08-25T16:01:41.562Z,33.05
2022-08-25T16:04:11.916Z,33.12
2022-08-25T16:06:42.272Z,33.01
2022-08-25T16:09:12.495Z,32.84
2022-08-25T16:11:43.590Z,32.84
2022-08-25T16:14:15.222Z,32.79
2022-08-25T16:16:48.680Z,32.89
2022-08-25T16:19:18.845Z,32.70
2022-08-25T16:21:49.114Z,32.83
2022-08-25T16:24:20.396Z,32.71
2022-08-25T16:26:51.751Z,32.68
2022-08-25T16:29:22.856Z,32.79
2022-08-25T16:31:55.660Z,32.51
2022-08-25T16:34:30.803Z,32.59
2022-08-25T16:37:02.064Z,32.53
2022-08-25T16:39:32.364Z,32.53
2022-08-25T16:42:02.867Z,32.38
2022-08-25T16:44:34.500Z,32.24
2022-08-25T16:47:09.573Z,32.27
2022-08-25T16:49:44.456Z,32.25
2022-08-25T16:52:28.544Z,32.16
2022-08-25T16:55:11.889Z,32.08
2022-08-25T16:57:43.427Z,31.97
2022-08-25T17:00:17.661Z,31.87
2022-08-25T17:02:51.727Z,31.74
2022-08-25T17:05:22.153Z,31.62
2022-08-25T17:08:05.031Z,31.50
2022-08-25T17:10:38.765Z,31.35
2022-08-25T17:13:09.175Z,31.23
2022-08-25T17:15:43.412Z,31.13
2022-08-25T17:18:16.602Z,30.99
2022-08-25T17:20:48.768Z,30.87
2022-08-25T17:23:21.455Z,30.68
2022-08-25T17:25:53.062Z,30.55
2022-08-25T17:28:23.701Z,30.35
2022-08-25T17:30:55.566Z,30.17
2022-08-25T17:33:29.101Z,29.98
2022-08-25T17:36:00.613Z,29.81
2022-08-25T17:38:33.886Z,29.63
2022-08-25T17:41:06.978Z,29.49
2022-08-25T17:43:40.143Z,29.32
2022-08-25T17:46:11.832Z,29.18
2022-08-25T17:48:45.695Z,29.01
2022-08-25T17:51:18.541Z,28.91
2022-08-25T17:53:48.799Z,28.73
2022-08-25T17:56:22.403Z,28.63
2022-08-25T17:58:55.242Z,28.53
2022-08-25T18:01:27.841Z,28.38
2022-08-25T18:04:01.852Z,28.33
2022-08-25T18:06:32.641Z,28.25
2022-08-25T18:09:06.296Z,28.18
2022-08-25T18:11:36.497Z,28.10
2022-08-25T18:14:06.803Z,28.04
2022-08-25T18:16:42.138Z,27.99
2022-08-25T18:19:16.847Z,27.87
2022-08-25T18:21:47.269Z,27.76
2022-08-25T18:24:17.624Z,27.64
2022-08-25T18:26:49.510Z,27.58
2022-08-25T18:29:20.295Z,27.53
2022-08-25T18:31:53.663Z,27.47
2022-08-25T18:34:30.430Z,27.45
2022-08-25T18:37:21.690Z,27.42
2022-08-25T18:40:06.809Z,27.40
2022-08-25T18:42:40.546Z,27.46
2022-08-25T18:45:12.798Z,27.48
2022-08-25T18:47:43.219Z,27.53
2022-08-25T18:50:16.098Z,27.49
2022-08-25T18:52:46.301Z,27.41
2022-08-25T18:55:16.612Z,27.36
2022-08-25T18:57:47.584Z,27.27
2022-08-25T19:00:23.710Z,27.18
2022-08-25T19:02:57.509Z,27.08
2022-08-25T19:05:34.633Z,27.01
2022-08-25T19:08:08.874Z,26.96
2022-08-25T19:10:40.401Z,26.88
2022-08-25T19:13:12.591Z,26.82
2022-08-25T19:15:44.191Z,26.77
2022-08-25T19:18:16.043Z,26.69
2022-08-25T19:20:50.303Z,26.64
2022-08-25T19:23:22.772Z,26.57
2022-08-25T19:25:53.017Z,26.50
2022-08-25T19:28:23.342Z,26.46
2022-08-25T19:30:54.325Z,26.41
2022-08-25T19:33:42.699Z,26.37
2022-08-25T19:36:19.019Z,26.30
2022-08-25T19:38:54.054Z,26.24
2022-08-25T19:41:25.047Z,26.20
2022-08-25T19:43:57.444Z,26.14
2022-08-25T19:46:32.728Z,26.05
2022-08-25T19:49:08.930Z,26.03
2022-08-25T19:51:45.455Z,25.96
2022-08-25T19:54:17.327Z,25.94
2022-08-25T19:56:54.305Z,25.86
2022-08-25T19:59:40.689Z,25.79
2022-08-25T20:02:15.968Z,25.72
2022-08-25T20:04:49.217Z,25.71
2022-08-25T20:07:25.456Z,25.64
2022-08-25T20:09:57.680Z,25.59
2022-08-25T20:12:28.986Z,25.50
2022-08-25T20:14:59.288Z,25.49
2022-08-25T20:17:30.275Z,25.45
2022-08-25T20:20:04.547Z,25.36
2022-08-25T20:22:38.518Z,25.33
2022-08-25T20:25:13.437Z,25.31
2022-08-25T20:27:46.529Z,25.28
2022-08-25T20:30:22.210Z,25.20
2022-08-25T20:32:52.757Z,25.16
2022-08-25T20:35:26.327Z,25.05
2022-08-25T20:38:01.150Z,25.08
2022-08-25T20:40:33.678Z,25.04
2022-08-25T20:43:05.043Z,25.03
2022-08-25T20:45:43.763Z,24.98
2022-08-25T20:48:14.097Z,24.99
2022-08-25T20:50:44.395Z,24.95
2022-08-25T20:53:17.986Z,24.93
2022-08-25T20:55:48.562Z,24.90
2022-08-25T20:58:19.379Z,24.87
2022-08-25T21:00:49.945Z,24.84
2022-08-25T21:03:20.209Z,24.78
2022-08-25T21:05:54.150Z,24.75
2022-08-25T21:08:28.044Z,24.74
2022-08-25T21:10:58.000Z,24.73
2022-08-25T21:13:28.705Z,24.68
2022-08-25T21:16:05.606Z,24.68
2022-08-25T21:18:36.025Z,24.65
2022-08-25T21:21:12.359Z,24.57
2022-08-25T21:23:48.225Z,24.61
2022-08-25T21:26:21.224Z,24.59
2022-08-25T21:28:51.463Z,24.56
2022-08-25T21:31:23.668Z,24.53
2022-08-25T21:33:56.528Z,24.51
2022-08-25T21:36:28.921Z,24.49
2022-08-25T21:39:03.582Z,24.47
2022-08-25T21:41:36.808Z,24.45
2022-08-25T21:44:07.334Z,24.42
2022-08-25T21:46:39.255Z,24.38
2022-08-25T21:49:10.969Z,24.34
2022-08-25T21:51:46.887Z,24.32
2022-08-25T21:54:20.848Z,24.28
2022-08-25T21:56:58.601Z,24.25
2022-08-25T21:59:31.846Z,24.21
2022-08-25T22:02:04.460Z,24.22
2022-08-25T22:04:35.710Z,24.19
2022-08-25T22:07:08.376Z,24.19
2022-08-25T22:09:41.822Z,24.17
2022-08-25T22:12:13.316Z,24.16
2022-08-25T22:14:45.802Z,24.16
2022-08-25T22:17:17.284Z,24.16
2022-08-25T22:19:54.459Z,24.15
2022-08-25T22:22:25.220Z,24.15
2022-08-25T22:24:58.832Z,24.12
2022-08-25T22:27:29.276Z,24.13
2022-08-25T22:29:59.632Z,24.08
2022-08-25T22:32:30.610Z,24.07
2022-08-25T22:35:00.818Z,24.02
2022-08-25T22:37:31.183Z,23.96
2022-08-25T22:40:07.720Z,23.95
2022-08-25T22:42:38.062Z,23.93
2022-08-25T22:45:09.077Z,23.87
2022-08-25T22:47:39.876Z,23.83
2022-08-25T22:50:12.605Z,23.75
2022-08-25T22:52:42.821Z,23.62
2022-08-25T22:55:16.667Z,23.47
2022-08-25T22:57:47.528Z,23.32
2022-08-25T23:00:19.344Z,23.26
2022-08-25T23:02:53.301Z,23.19
2022-08-25T23:05:23.923Z,23.13
2022-08-25T23:07:54.150Z,23.04
2022-08-25T23:10:27.467Z,23.06
2022-08-25T23:12:57.676Z,23.12
2022-08-25T23:15:27.994Z,23.10
2022-08-25T23:17:58.279Z,23.07
2022-08-25T23:20:45.192Z,23.06
2022-08-25T23:23:16.701Z,23.05
2022-08-25T23:25:49.459Z,23.01
2022-08-25T23:28:20.167Z,22.97
2022-08-25T23:30:56.968Z,22.91
2022-08-25T23:33:29.883Z,22.84
2022-08-25T23:36:04.309Z,22.80
2022-08-25T23:38:34.498Z,22.76
2022-08-25T23:41:11.056Z,22.73
2022-08-25T23:43:41.256Z,22.69
2022-08-25T23:46:11.850Z,22.67
2022-08-25T23:48:42.590Z,22.59
2022-08-25T23:51:13.236Z,22.55
2022-08-25T23:53:43.393Z,22.53
2022-08-25T23:56:16.246Z,22.52
2022-08-25T23:58:46.421Z,22.49
